Time,TemperatureF,DewpointF,PressureIn,WindDirection,WindDirectionDegrees,WindSpeedMPH,WindSpeedGustMPH,Humidity,HourlyPrecipIn,Conditions,Clouds,dailyrainin,SoftwareType,DateUTC
2013-04-13 10:29:00,57.9,46.9,29.87,SSW,203,6.9,6.9,67,0.00,,,0.00,WUHU216HW,2013-04-13 17:29:00,
2013-04-13 10:34:00,58.2,46.9,29.87,SSE,158,2.0,6.9,66,0.00,,,0.00,WUHU216HW,2013-04-13 17:34:00,
2013-04-13 10:39:00,58.6,47.2,29.88,SW,225,4.9,4.9,66,0.00,,,0.00,WUHU216HW,2013-04-13 17:39:00,
2013-04-13 10:45:00,58.8,47.0,29.88,SSW,203,6.0,6.0,65,0.00,,,0.00,WUHU216HW,2013-04-13 17:45:00,
2013-04-13 10:50:00,58.8,47.0,29.88,SE,135,1.1,6.0,65,0.00,,,0.00,WUHU216HW,2013-04-13 17:50:00,
2013-04-13 10:55:00,59.3,47.5,29.88,SW,225,4.9,8.0,65,0.00,,,0.00,WUHU216HW,2013-04-13 17:55:00,
2013-04-13 11:00:00,59.5,47.7,29.88,WSW,248,0.0,8.0,65,0.00,,,0.00,WUHU216HW,2013-04-13 18:00:00,
2013-04-13 11:05:00,59.9,48.1,29.89,SW,225,4.4,4.4,65,0.00,,,0.00,WUHU216HW,2013-04-13 18:05:00,
2013-04-13 11:10:00,60.0,47.8,29.88,SW,225,3.5,5.3,64,0.00,,,0.00,WUHU216HW,2013-04-13 18:10:00,
2013-04-13 11:16:00,60.2,47.6,29.88,SE,135,2.9,6.4,63,0.00,,,0.00,WUHU216HW,2013-04-13 18:16:00,
2013-04-13 11:21:00,60.6,47.5,29.88,SW,225,1.1,6.4,62,0.00,,,0.00,WUHU216HW,2013-04-13 18:21:00,
2013-04-13 11:27:00,60.9,47.9,29.88,SSE,158,0.0,6.0,62,0.00,,,0.00,WUHU216HW,2013-04-13 18:27:00,
2013-04-13 11:28:00,61.1,48.0,29.87,SW,225,0.0,6.0,62,0.00,,,0.00,WUHU216HW,2013-04-13 18:28:00,
2013-04-13 11:33:00,61.3,48.2,29.88,WSW,248,2.6,6.0,61,0.00,,,0.00,WUHU216HW,2013-04-13 18:33:00,
2013-04-13 11:38:00,61.7,48.1,29.88,SSW,203,0.0,5.8,61,0.00,,,0.00,WUHU216HW,2013-04-13 18:38:00,
2013-04-13 11:43:00,62.0,48.0,29.88,SW,225,0.0,5.8,60,0.00,,,0.00,WUHU216HW,2013-04-13 18:43:00,
2013-04-13 11:48:00,62.4,48.3,29.88,SSW,203,6.9,6.9,60,0.00,,,0.00,WUHU216HW,2013-04-13 18:48:00,
2013-04-13 11:53:00,62.6,48.5,29.88,SW,225,8.0,8.0,60,0.00,,,0.00,WUHU216HW,2013-04-13 18:53:00,
2013-04-13 11:58:00,62.7,48.2,29.88,WSW,248,0.0,8.0,59,0.00,,,0.00,WUHU216HW,2013-04-13 18:58:00,
2013-04-13 12:03:00,62.9,48.3,29.88,SW,225,0.0,8.0,59,0.00,,,0.00,WUHU216HW,2013-04-13 19:03:00,
2013-04-13 12:09:00,63.1,48.0,29.88,SSW,203,0.6,3.5,58,0.00,,,0.00,WUHU216HW,2013-04-13 19:09:00,
2013-04-13 12:14:00,63.3,48.2,29.87,SW,225,2.9,2.9,58,0.00,,,0.00,WUHU216HW,2013-04-13 19:14:00,
2013-04-13 12:19:00,63.5,49.0,29.87,SSW,203,6.4,6.4,58,0.00,,,0.00,WUHU216HW,2013-04-13 19:19:00,
2013-04-13 12:24:00,64.0,48.8,29.87,SW,225,0.0,6.4,58,0.00,,,0.00,WUHU216HW,2013-04-13 19:24:00,
2013-04-13 12:29:00,64.2,49.0,29.87,SW,225,8.7,8.7,58,0.00,,,0.00,WUHU216HW,2013-04-13 19:29:00,
2013-04-13 12:34:00,64.5,49.3,29.87,SW,225,9.6,9.6,58,0.00,,,0.00,WUHU216HW,2013-04-13 19:34:00,
2013-04-13 12:39:00,64.7,49.5,29.87,SW,225,2.6,10.0,58,0.00,,,0.00,WUHU216HW,2013-04-13 19:39:00,
2013-04-13 12:44:00,64.7,49.5,29.87,SE,135,0.6,10.0,58,0.00,,,0.00,WUHU216HW,2013-04-13 19:44:00,
2013-04-13 12:49:00,64.9,50.2,29.87,West,270,0.0,2.9,59,0.00,,,0.00,WUHU216HW,2013-04-13 19:49:00,
2013-04-13 12:54:00,64.9,50.2,29.86,SW,225,3.3,3.3,59,0.00,,,0.00,WUHU216HW,2013-04-13 19:54:00,
2013-04-13 12:59:00,65.1,49.9,29.86,SW,225,3.8,3.8,58,0.00,,,0.00,WUHU216HW,2013-04-13 19:59:00,
2013-04-13 13:04:00,65.1,50.4,29.86,SSW,203,7.8,7.8,59,0.00,,,0.00,WUHU216HW,2013-04-13 20:04:00,
2013-04-13 13:09:00,65.4,50.2,29.86,NW,315,0.0,7.8,58,0.00,,,0.00,WUHU216HW,2013-04-13 20:09:00,
2013-04-13 13:14:00,65.8,50.6,29.86,SW,225,2.2,7.8,58,0.00,,,0.00,WUHU216HW,2013-04-13 20:14:00,
2013-04-13 13:19:00,65.8,50.6,29.86,WSW,248,4.6,7.1,58,0.00,,,0.00,WUHU216HW,2013-04-13 20:19:00,
2013-04-13 13:24:00,65.8,50.1,29.85,SSW,203,3.3,6.7,57,0.00,,,0.00,WUHU216HW,2013-04-13 20:24:00,
2013-04-13 13:30:00,65.8,50.1,29.85,SW,225,5.5,8.5,57,0.00,,,0.00,WUHU216HW,2013-04-13 20:30:00,
2013-04-13 13:35:00,65.8,50.1,29.85,SW,225,5.5,8.5,57,0.00,,,0.00,WUHU216HW,2013-04-13 20:35:00,
2013-04-13 13:40:00,65.8,50.1,29.84,SW,225,5.5,5.5,57,0.00,,,0.00,WUHU216HW,2013-04-13 20:40:00,
2013-04-13 13:45:00,66.2,50.0,29.85,SSE,158,4.4,6.0,56,0.00,,,0.00,WUHU216HW,2013-04-13 20:45:00,
2013-04-13 13:50:00,66.3,50.1,29.84,SW,225,0.0,6.0,56,0.00,,,0.00,WUHU216HW,2013-04-13 20:50:00,
2013-04-13 13:55:00,66.9,50.6,29.84,SW,225,3.5,4.0,56,0.00,,,0.00,WUHU216HW,2013-04-13 20:55:00,
2013-04-13 14:00:00,66.9,50.1,29.84,SSW,203,6.2,6.2,55,0.00,,,0.00,WUHU216HW,2013-04-13 21:00:00,
2013-04-13 14:05:00,67.1,49.8,29.84,SW,225,1.5,6.2,54,0.00,,,0.00,WUHU216HW,2013-04-13 21:05:00,
2013-04-13 14:10:00,67.1,49.8,29.84,SW,225,0.0,3.3,54,0.00,,,0.00,WUHU216HW,2013-04-13 21:10:00,
2013-04-13 14:15:00,67.2,50.0,29.84,SSW,203,3.1,4.6,54,0.00,,,0.00,WUHU216HW,2013-04-13 21:15:00,
2013-04-13 14:20:00,67.2,49.5,29.84,West,270,1.1,4.6,53,0.00,,,0.00,WUHU216HW,2013-04-13 21:20:00,
2013-04-13 14:25:00,67.8,50.0,29.84,SSW,203,3.5,3.5,53,0.00,,,0.00,WUHU216HW,2013-04-13 21:25:00,
2013-04-13 14:30:00,68.0,50.1,29.84,SW,225,8.2,8.2,53,0.00,,,0.00,WUHU216HW,2013-04-13 21:30:00,
2013-04-13 14:35:00,68.1,49.8,29.84,SE,135,4.2,8.2,52,0.00,,,0.00,WUHU216HW,2013-04-13 21:35:00,
2013-04-13 14:40:00,68.7,49.8,29.84,SW,225,0.0,4.2,51,0.00,,,0.00,WUHU216HW,2013-04-13 21:40:00,
2013-04-13 14:45:00,69.0,50.1,29.84,South,180,0.0,4.2,51,0.00,,,0.00,WUHU216HW,2013-04-13 21:45:00,
2013-04-13 14:51:00,69.4,50.1,29.84,SW,225,7.1,7.1,51,0.00,,,0.00,WUHU216HW,2013-04-13 21:51:00,
2013-04-13 14:56:00,69.6,50.1,29.84,SSE,158,0.0,7.1,50,0.00,,,0.00,WUHU216HW,2013-04-13 21:56:00,
2013-04-13 15:01:00,69.9,49.9,29.83,SW,225,1.3,7.1,49,0.00,,,0.00,WUHU216HW,2013-04-13 22:01:00,
2013-04-13 15:06:00,70.3,50.0,29.83,SW,225,5.5,5.5,49,0.00,,,0.00,WUHU216HW,2013-04-13 22:06:00,
2013-04-13 15:11:00,70.3,50.2,29.83,South,180,0.6,5.5,49,0.00,,,0.00,WUHU216HW,2013-04-13 22:11:00,
2013-04-13 15:16:00,70.5,49.8,29.83,WNW,293,0.0,6.7,48,0.00,,,0.00,WUHU216HW,2013-04-13 22:16:00,
2013-04-13 15:21:00,70.5,49.2,29.83,West,270,0.0,6.7,47,0.00,,,0.00,WUHU216HW,2013-04-13 22:21:00,
2013-04-13 15:26:00,70.5,49.2,29.83,NNW,338,0.0,0.8,47,0.00,,,0.00,WUHU216HW,2013-04-13 22:26:00,
2013-04-13 15:31:00,70.5,48.6,29.83,North,0,0.4,0.4,46,0.00,,,0.00,WUHU216HW,2013-04-13 22:31:00,
2013-04-13 15:36:00,70.3,47.8,29.83,NNW,338,1.3,1.3,45,0.00,,,0.00,WUHU216HW,2013-04-13 22:36:00,
2013-04-13 15:42:00,70.1,47.7,29.83,WNW,293,0.0,1.3,45,0.00,,,0.00,WUHU216HW,2013-04-13 22:42:00,
2013-04-13 15:47:00,70.1,47.7,29.82,NNW,338,1.5,1.5,45,0.00,,,0.00,WUHU216HW,2013-04-13 22:47:00,
2013-04-13 15:52:00,69.8,47.3,29.83,WSW,248,0.0,2.9,45,0.00,,,0.00,WUHU216HW,2013-04-13 22:52:00,
2013-04-13 15:57:00,69.9,47.5,29.83,WNW,293,0.0,2.9,45,0.00,,,0.00,WUHU216HW,2013-04-13 22:57:00,
2013-04-13 16:02:00,70.1,47.7,29.83,SSW,203,1.1,1.1,45,0.00,,,0.00,WUHU216HW,2013-04-13 23:02:00,
2013-04-13 16:07:00,70.5,48.6,29.83,SW,225,0.0,1.7,46,0.00,,,0.00,WUHU216HW,2013-04-13 23:07:00,
2013-04-13 16:12:00,70.8,48.9,29.83,NW,315,0.0,4.0,46,0.00,,,0.00,WUHU216HW,2013-04-13 23:12:00,
2013-04-13 16:18:00,70.8,48.9,29.83,SW,225,3.8,5.5,46,0.00,,,0.00,WUHU216HW,2013-04-13 23:18:00,
2013-04-13 16:23:00,70.7,48.7,29.82,SSW,203,0.0,5.5,46,0.00,,,0.00,WUHU216HW,2013-04-13 23:23:00,
2013-04-13 16:28:00,70.5,48.0,29.82,NNW,338,0.0,0.0,45,0.00,,,0.00,WUHU216HW,2013-04-13 23:28:00,
2013-04-13 16:33:00,70.3,47.2,29.82,NW,315,0.0,0.0,44,0.00,,,0.00,WUHU216HW,2013-04-13 23:33:00,
2013-04-13 16:38:00,70.3,47.2,29.82,SW,225,0.0,0.0,44,0.00,,,0.00,WUHU216HW,2013-04-13 23:38:00,
2013-04-13 16:43:00,70.3,47.2,29.82,West,270,0.0,0.0,44,0.00,,,0.00,WUHU216HW,2013-04-13 23:43:00,
2013-04-13 16:48:00,70.1,46.5,29.82,WNW,293,0.0,0.8,43,0.00,,,0.00,WUHU216HW,2013-04-13 23:48:00,
2013-04-13 16:53:00,69.8,46.7,29.82,SW,225,2.0,2.0,44,0.00,,,0.00,WUHU216HW,2013-04-13 23:53:00,
2013-04-13 16:58:00,69.9,46.9,29.82,WSW,248,0.0,2.0,44,0.00,,,0.00,WUHU216HW,2013-04-13 23:58:00,
2013-04-13 17:03:00,69.6,46.6,29.82,West,270,0.0,2.0,44,0.00,,,0.00,WUHU216HW,2013-04-14 00:03:00,
2013-04-13 17:08:00,69.6,46.6,29.82,WNW,293,0.0,1.3,44,0.00,,,0.00,WUHU216HW,2013-04-14 00:08:00,
2013-04-13 17:13:00,69.6,46.6,29.82,NNW,338,2.0,2.0,44,0.00,,,0.00,WUHU216HW,2013-04-14 00:13:00,
2013-04-13 17:18:00,69.4,45.8,29.82,West,270,0.8,2.0,43,0.00,,,0.00,WUHU216HW,2013-04-14 00:18:00,
2013-04-13 17:23:00,69.0,45.5,29.82,WNW,293,2.9,4.9,43,0.00,,,0.00,WUHU216HW,2013-04-14 00:23:00,
2013-04-13 17:29:00,68.9,45.3,29.82,NNW,338,0.0,4.9,43,0.00,,,0.00,WUHU216HW,2013-04-14 00:29:00,
2013-04-13 17:34:00,68.5,45.0,29.82,NW,315,0.0,2.9,43,0.00,,,0.00,WUHU216HW,2013-04-14 00:34:00,
2013-04-13 17:39:00,68.5,45.0,29.83,NW,315,0.8,0.8,43,0.00,,,0.00,WUHU216HW,2013-04-14 00:39:00,
2013-04-13 17:44:00,68.1,45.3,29.83,SW,225,6.2,6.2,44,0.00,,,0.00,WUHU216HW,2013-04-14 00:44:00,
2013-04-13 17:49:00,68.5,46.8,29.83,SSW,203,5.5,6.2,46,0.00,,,0.00,WUHU216HW,2013-04-14 00:49:00,
2013-04-13 17:54:00,68.9,47.7,29.83,SW,225,0.0,5.5,47,0.00,,,0.00,WUHU216HW,2013-04-14 00:54:00,
2013-04-13 17:59:00,69.0,47.9,29.83,SSW,203,0.0,2.0,47,0.00,,,0.00,WUHU216HW,2013-04-14 00:59:00,
2013-04-13 18:04:00,69.0,47.3,29.83,SW,225,0.0,2.0,46,0.00,,,0.00,WUHU216HW,2013-04-14 01:04:00,
2013-04-13 18:09:00,69.0,47.3,29.83,WNW,293,0.0,0.0,46,0.00,,,0.00,WUHU216HW,2013-04-14 01:09:00,
2013-04-13 18:14:00,68.5,46.2,29.83,WNW,293,0.0,2.4,45,0.00,,,0.00,WUHU216HW,2013-04-14 01:14:00,
2013-04-13 18:19:00,68.0,45.7,29.83,SW,225,1.7,2.4,45,0.00,,,0.00,WUHU216HW,2013-04-14 01:19:00,
2013-04-13 18:24:00,67.8,46.2,29.83,SSW,203,4.2,4.2,46,0.00,,,0.00,WUHU216HW,2013-04-14 01:24:00,
2013-04-13 18:29:00,67.6,46.0,29.83,SW,225,0.0,4.2,46,0.00,,,0.00,WUHU216HW,2013-04-14 01:29:00,
2013-04-13 18:35:00,67.6,46.6,29.83,SSW,203,3.5,3.5,47,0.00,,,0.00,WUHU216HW,2013-04-14 01:35:00,
2013-04-13 18:40:00,67.6,46.0,29.83,NW,315,0.0,3.5,46,0.00,,,0.00,WUHU216HW,2013-04-14 01:40:00,
2013-04-13 18:45:00,67.6,47.2,29.84,SSW,203,0.0,0.0,48,0.00,,,0.00,WUHU216HW,2013-04-14 01:45:00,
2013-04-13 18:50:00,67.2,46.9,29.84,SW,225,0.0,2.2,48,0.00,,,0.00,WUHU216HW,2013-04-14 01:50:00,
2013-04-13 18:55:00,67.1,46.7,29.84,WNW,293,0.0,5.1,48,0.00,,,0.00,WUHU216HW,2013-04-14 01:55:00,
2013-04-13 19:00:00,66.7,45.8,29.84,SSW,203,0.0,5.1,47,0.00,,,0.00,WUHU216HW,2013-04-14 02:00:00,
2013-04-13 19:05:00,66.3,44.9,29.83,West,270,0.0,2.6,46,0.00,,,0.00,WUHU216HW,2013-04-14 02:05:00,
2013-04-13 19:10:00,65.8,44.3,29.83,WNW,293,0.0,0.0,46,0.00,,,0.00,WUHU216HW,2013-04-14 02:10:00,
2013-04-13 19:15:00,65.3,43.8,29.84,SSW,203,0.0,0.0,46,0.00,,,0.00,WUHU216HW,2013-04-14 02:15:00,
2013-04-13 19:20:00,64.5,43.7,29.84,WNW,293,0.0,0.0,47,0.00,,,0.00,WUHU216HW,2013-04-14 02:20:00,
2013-04-13 19:25:00,64.2,44.0,29.84,WNW,293,0.0,0.0,48,0.00,,,0.00,WUHU216HW,2013-04-14 02:25:00,
2013-04-13 19:30:00,63.8,43.6,29.84,West,270,0.0,0.0,48,0.00,,,0.00,WUHU216HW,2013-04-14 02:30:00,
2013-04-13 19:35:00,63.3,43.3,29.84,SW,225,0.0,0.0,48,0.00,,,0.00,WUHU216HW,2013-04-14 02:35:00,
2013-04-13 19:40:00,63.1,43.0,29.84,SW,225,0.0,0.0,48,0.00,,,0.00,WUHU216HW,2013-04-14 02:40:00,
2013-04-13 19:45:00,63.1,43.0,29.84,SW,225,0.0,0.0,48,0.00,,,0.00,WUHU216HW,2013-04-14 02:45:00,
2013-04-13 19:50:00,62.6,41.8,29.84,SSW,203,0.0,0.8,47,0.00,,,0.00,WUHU216HW,2013-04-14 02:50:00,
2013-04-13 19:55:00,61.8,41.9,29.84,ENE,68,0.0,0.8,48,0.00,,,0.00,WUHU216HW,2013-04-14 02:55:00,
2013-04-13 20:01:00,61.5,41.5,29.84,WSW,248,0.0,0.0,48,0.00,,,0.00,WUHU216HW,2013-04-14 03:01:00,
2013-04-13 20:06:00,60.9,41.0,29.84,West,270,0.0,2.0,48,0.00,,,0.00,WUHU216HW,2013-04-14 03:06:00,
2013-04-13 20:11:00,60.6,41.3,29.84,West,270,0.0,2.0,49,0.00,,,0.00,WUHU216HW,2013-04-14 03:11:00,
2013-04-13 20:16:00,60.4,41.1,29.84,West,270,0.0,0.0,49,0.00,,,0.00,WUHU216HW,2013-04-14 03:16:00,
2013-04-13 20:21:00,59.9,41.2,29.85,SW,225,0.0,0.0,50,0.00,,,0.00,WUHU216HW,2013-04-14 03:21:00,
2013-04-13 20:26:00,59.7,41.1,29.85,WSW,248,0.0,0.0,50,0.00,,,0.00,WUHU216HW,2013-04-14 03:26:00,
2013-04-13 20:31:00,59.5,40.9,29.85,WSW,248,0.0,0.0,50,0.00,,,0.00,WUHU216HW,2013-04-14 03:31:00,
2013-04-13 20:36:00,59.3,40.7,29.85,SW,225,0.0,0.0,50,0.00,,,0.00,WUHU216HW,2013-04-14 03:36:00,
2013-04-13 20:42:00,59.1,41.0,29.86,SW,225,0.0,0.0,51,0.00,,,0.00,WUHU216HW,2013-04-14 03:42:00,
2013-04-13 20:47:00,58.8,40.7,29.85,WNW,293,0.0,0.0,51,0.00,,,0.00,WUHU216HW,2013-04-14 03:47:00,
2013-04-13 20:52:00,58.8,40.7,29.86,WNW,293,0.0,0.0,51,0.00,,,0.00,WUHU216HW,2013-04-14 03:52:00,
2013-04-13 20:57:00,58.8,40.7,29.86,WNW,293,0.0,0.0,51,0.00,,,0.00,WUHU216HW,2013-04-14 03:57:00,
2013-04-13 21:00:00,58.6,40.6,29.86,WNW,293,0.0,0.0,51,0.00,,,0.00,WUHU216HW,2013-04-14 04:00:00,
2013-04-13 21:01:00,58.6,40.6,29.86,WNW,293,0.0,0.0,51,0.00,,,0.00,WUHU216HW,2013-04-14 04:01:00,
2013-04-13 21:06:00,58.2,40.2,29.87,SW,225,0.0,0.0,51,0.00,,,0.00,WUHU216HW,2013-04-14 04:06:00,
2013-04-13 21:11:00,58.1,40.5,29.87,SW,225,0.0,0.0,52,0.00,,,0.00,WUHU216HW,2013-04-14 04:11:00,
2013-04-13 21:16:00,57.7,40.2,29.87,SSE,158,0.0,0.0,52,0.00,,,0.00,WUHU216HW,2013-04-14 04:16:00,
2013-04-13 21:22:00,57.7,40.2,29.87,SE,135,0.0,0.0,52,0.00,,,0.00,WUHU216HW,2013-04-14 04:22:00,
2013-04-13 21:27:00,57.3,40.4,29.87,SSE,158,0.0,0.0,53,0.00,,,0.00,WUHU216HW,2013-04-14 04:27:00,
2013-04-13 21:32:00,57.0,40.0,29.87,SE,135,0.0,0.0,53,0.00,,,0.00,WUHU216HW,2013-04-14 04:32:00,
2013-04-13 21:37:00,57.0,40.0,29.87,East,90,0.0,0.0,53,0.00,,,0.00,WUHU216HW,2013-04-14 04:37:00,
2013-04-13 21:42:00,56.8,40.3,29.88,East,90,0.0,0.0,54,0.00,,,0.00,WUHU216HW,2013-04-14 04:42:00,
2013-04-13 21:47:00,56.4,39.9,29.88,East,90,0.0,0.0,54,0.00,,,0.00,WUHU216HW,2013-04-14 04:47:00,
2013-04-13 21:52:00,56.4,39.9,29.88,East,90,0.0,0.0,54,0.00,,,0.00,WUHU216HW,2013-04-14 04:52:00,
2013-04-13 21:57:00,56.4,39.9,29.88,East,90,0.0,0.0,54,0.00,,,0.00,WUHU216HW,2013-04-14 04:57:00,
2013-04-13 22:02:00,56.3,39.8,29.88,East,90,0.0,0.0,54,0.00,,,0.00,WUHU216HW,2013-04-14 05:02:00,
2013-04-13 22:08:00,56.1,39.6,29.88,NW,315,0.0,0.0,54,0.00,,,0.00,WUHU216HW,2013-04-14 05:08:00,
2013-04-13 22:13:00,55.9,39.4,29.88,NW,315,0.0,0.0,54,0.00,,,0.00,WUHU216HW,2013-04-14 05:13:00,
2013-04-13 22:18:00,55.9,39.9,29.88,NW,315,0.0,0.0,55,0.00,,,0.00,WUHU216HW,2013-04-14 05:18:00,
2013-04-13 22:23:00,55.9,39.9,29.88,NW,315,0.0,0.0,55,0.00,,,0.00,WUHU216HW,2013-04-14 05:23:00,
2013-04-13 22:28:00,55.9,39.9,29.88,NW,315,0.0,0.0,55,0.00,,,0.00,WUHU216HW,2013-04-14 05:28:00,
2013-04-13 22:33:00,55.7,39.7,29.88,WNW,293,0.0,0.0,55,0.00,,,0.00,WUHU216HW,2013-04-14 05:33:00,
2013-04-13 22:38:00,55.5,39.5,29.88,WNW,293,0.0,0.0,55,0.00,,,0.00,WUHU216HW,2013-04-14 05:38:00,
2013-04-13 22:43:00,55.4,39.8,29.88,WNW,293,0.0,0.0,56,0.00,,,0.00,WUHU216HW,2013-04-14 05:43:00,
2013-04-13 22:48:00,55.2,39.6,29.88,West,270,0.0,0.0,56,0.00,,,0.00,WUHU216HW,2013-04-14 05:48:00,
2013-04-13 22:53:00,55.2,39.6,29.89,West,270,0.0,0.0,56,0.00,,,0.00,WUHU216HW,2013-04-14 05:53:00,
2013-04-13 22:58:00,55.0,39.5,29.88,West,270,0.0,0.0,56,0.00,,,0.00,WUHU216HW,2013-04-14 05:58:00,
2013-04-13 23:03:00,54.8,39.3,29.88,SW,225,0.0,0.0,56,0.00,,,0.00,WUHU216HW,2013-04-14 06:03:00,
2013-04-13 23:08:00,54.6,39.6,29.89,SW,225,0.0,0.0,57,0.00,,,0.00,WUHU216HW,2013-04-14 06:08:00,
2013-04-13 23:13:00,54.6,39.6,29.89,SW,225,0.0,0.0,57,0.00,,,0.00,WUHU216HW,2013-04-14 06:13:00,
2013-04-13 23:18:00,54.5,39.5,29.89,East,90,0.0,0.0,57,0.00,,,0.00,WUHU216HW,2013-04-14 06:18:00,
2013-04-13 23:23:00,54.3,39.3,29.89,ESE,113,0.0,0.0,57,0.00,,,0.00,WUHU216HW,2013-04-14 06:23:00,
2013-04-13 23:28:00,54.3,39.3,29.89,ESE,113,0.0,0.0,57,0.00,,,0.00,WUHU216HW,2013-04-14 06:28:00,
2013-04-13 23:33:00,54.1,39.6,29.89,ESE,113,0.0,0.0,58,0.00,,,0.00,WUHU216HW,2013-04-14 06:33:00,
2013-04-13 23:38:00,53.9,39.4,29.89,ESE,113,0.0,0.0,58,0.00,,,0.00,WUHU216HW,2013-04-14 06:38:00,
2013-04-13 23:44:00,53.7,39.3,29.89,ESE,113,0.0,0.0,58,0.00,,,0.00,WUHU216HW,2013-04-14 06:44:00,
2013-04-13 23:49:00,53.4,38.9,29.88,ESE,113,0.0,0.0,58,0.00,,,0.00,WUHU216HW,2013-04-14 06:49:00,
2013-04-13 23:54:00,53.4,38.9,29.89,ESE,113,0.0,0.0,58,0.00,,,0.00,WUHU216HW,2013-04-14 06:54:00,
2013-04-13 23:59:00,53.2,38.8,29.89,ESE,113,0.0,0.0,58,0.00,,,0.00,WUHU216HW,2013-04-14 06:59:00,